createdAt,value
2023-04-18T00:00:04.832Z,124.32
2023-04-18T00:01:04.876Z,130.10
2023-04-18T00:02:05.035Z,129.61
2023-04-18T00:03:05.390Z,126.52
2023-04-18T00:04:05.344Z,124.52
2023-04-18T00:05:05.192Z,126.68
2023-04-18T00:06:05.247Z,125.55
2023-04-18T00:07:05.191Z,123.68
2023-04-18T00:08:05.238Z,124.69
2023-04-18T00:09:05.316Z,134.05
2023-04-18T00:10:05.219Z,131.77
2023-04-18T00:11:05.221Z,126.08
2023-04-18T00:12:05.211Z,120.61
2023-04-18T00:13:05.213Z,129.42
2023-04-18T00:14:05.190Z,124.94
2023-04-18T00:15:05.195Z,125.09
2023-04-18T00:16:05.199Z,124.35
2023-04-18T00:17:05.394Z,116.37
2023-04-18T00:18:05.559Z,117.83
2023-04-18T00:19:05.605Z,122.12
2023-04-18T00:20:05.720Z,119.82
2023-04-18T00:21:05.876Z,116.14
2023-04-18T00:22:06.018Z,122.78
2023-04-18T00:23:06.128Z,128.90
2023-04-18T00:24:06.283Z,128.68
2023-04-18T00:25:06.439Z,123.89
2023-04-18T00:26:06.604Z,123.84
2023-04-18T00:27:06.725Z,132.57
2023-04-18T00:28:06.878Z,133.38
2023-04-18T00:29:07.126Z,132.10
2023-04-18T00:30:07.192Z,136.41
2023-04-18T00:31:07.393Z,128.05
2023-04-18T00:32:07.485Z,134.32
2023-04-18T00:33:07.663Z,134.43
2023-04-18T00:34:07.821Z,133.83
2023-04-18T00:35:07.958Z,139.59
2023-04-18T00:36:08.093Z,134.64
2023-04-18T00:37:08.241Z,132.55
2023-04-18T00:38:08.404Z,135.61
2023-04-18T00:39:08.647Z,133.58
2023-04-18T00:40:08.853Z,129.72
2023-04-18T00:41:08.916Z,124.54
2023-04-18T00:42:09.114Z,121.73
2023-04-18T00:43:09.275Z,126.45
2023-04-18T00:44:09.454Z,131.71
2023-04-18T00:45:09.684Z,129.45
2023-04-18T00:46:09.867Z,132.66
2023-04-18T00:47:09.950Z,126.94
2023-04-18T00:48:10.117Z,133.85
2023-04-18T00:49:11.826Z,134.35
2023-04-18T00:50:10.259Z,130.94
2023-04-18T00:51:10.259Z,128.00
2023-04-18T00:52:10.270Z,127.75
2023-04-18T00:53:10.281Z,130.86
2023-04-18T00:54:10.269Z,130.85
2023-04-18T00:55:10.318Z,133.51
2023-04-18T00:56:10.315Z,135.46
2023-04-18T00:57:10.318Z,133.15
2023-04-18T00:58:10.310Z,142.84
2023-04-18T00:59:10.313Z,144.93
2023-04-18T01:00:10.357Z,141.51
2023-04-18T01:01:10.346Z,144.18
2023-04-18T01:02:10.367Z,142.12
2023-04-18T01:03:10.500Z,141.12
2023-04-18T01:04:10.461Z,138.65
2023-04-18T01:05:10.383Z,135.70
2023-04-18T01:06:10.357Z,130.63
2023-04-18T01:07:10.363Z,132.18
2023-04-18T01:08:10.435Z,131.73
2023-04-18T01:09:10.430Z,130.83
2023-04-18T01:10:10.438Z,132.85
2023-04-18T01:11:10.419Z,133.04
2023-04-18T01:12:10.418Z,129.94
2023-04-18T01:13:10.417Z,125.06
2023-04-18T01:14:10.510Z,123.99
2023-04-18T01:15:10.502Z,130.77
2023-04-18T01:16:10.514Z,135.51
2023-04-18T01:17:10.465Z,135.30
2023-04-18T01:18:10.467Z,134.93
2023-04-18T01:19:10.525Z,134.67
2023-04-18T01:20:10.542Z,139.66
2023-04-18T01:21:10.519Z,144.37
2023-04-18T01:22:10.543Z,134.41
2023-04-18T01:23:10.644Z,130.58
2023-04-18T01:24:10.898Z,129.76
2023-04-18T01:25:10.908Z,131.47
2023-04-18T01:26:11.033Z,126.44
2023-04-18T01:27:11.152Z,135.27
2023-04-18T01:28:11.292Z,137.35
2023-04-18T01:29:11.507Z,131.86
2023-04-18T01:30:11.586Z,139.69
2023-04-18T01:31:11.907Z,132.98
2023-04-18T01:32:11.926Z,137.05
2023-04-18T01:33:12.040Z,137.07
2023-04-18T01:34:12.447Z,142.43
2023-04-18T01:35:12.194Z,140.70
2023-04-18T01:36:12.196Z,134.36
2023-04-18T01:37:12.220Z,143.18
2023-04-18T01:38:12.192Z,136.92
2023-04-18T01:39:12.223Z,129.68
2023-04-18T01:40:12.317Z,127.70
2023-04-18T01:41:12.283Z,122.68
2023-04-18T01:42:12.284Z,127.06
2023-04-18T01:43:12.268Z,135.56
2023-04-18T01:44:12.608Z,138.02
2023-04-18T01:45:12.281Z,130.69
2023-04-18T01:46:12.331Z,137.33
2023-04-18T01:47:12.282Z,134.70
2023-04-18T01:48:12.260Z,130.14
2023-04-18T01:49:12.281Z,138.44
2023-04-18T01:50:12.362Z,138.35
2023-04-18T01:51:12.546Z,146.01
2023-04-18T01:52:12.671Z,138.97
2023-04-18T01:53:12.807Z,136.71
2023-04-18T01:54:13.172Z,134.49
2023-04-18T01:55:13.053Z,132.43
2023-04-18T01:56:13.374Z,134.40
2023-04-18T01:57:13.152Z,133.56
2023-04-18T01:58:13.165Z,126.76
2023-04-18T01:59:13.162Z,124.93
2023-04-18T02:00:13.171Z,128.98
2023-04-18T02:01:13.223Z,135.32
2023-04-18T02:02:13.346Z,132.20
2023-04-18T02:03:13.385Z,132.71
2023-04-18T02:04:13.677Z,131.48
2023-04-18T02:05:13.432Z,119.93
2023-04-18T02:06:13.435Z,121.02
2023-04-18T02:07:13.442Z,118.33
2023-04-18T02:08:13.436Z,117.26
2023-04-18T02:09:13.482Z,122.77
2023-04-18T02:10:13.525Z,122.34
2023-04-18T02:11:13.533Z,128.81
2023-04-18T02:12:13.544Z,135.17
2023-04-18T02:13:13.534Z,137.99
2023-04-18T02:14:13.688Z,129.88
2023-04-18T02:15:13.544Z,128.51
2023-04-18T02:16:13.619Z,122.45
2023-04-18T02:17:13.554Z,123.88
2023-04-18T02:18:13.579Z,129.29
2023-04-18T02:19:13.635Z,124.76
2023-04-18T02:20:13.569Z,122.18
2023-04-18T02:21:13.598Z,124.29
2023-04-18T02:22:13.594Z,128.52
2023-04-18T02:23:13.591Z,132.67
2023-04-18T02:24:13.774Z,127.86
2023-04-18T02:25:13.584Z,127.05
2023-04-18T02:26:13.673Z,122.70
2023-04-18T02:27:13.694Z,121.92
2023-04-18T02:28:13.722Z,116.01
2023-04-18T02:29:13.701Z,116.41
2023-04-18T02:30:13.720Z,119.79
2023-04-18T02:31:13.713Z,120.29
2023-04-18T02:32:13.720Z,122.48
2023-04-18T02:33:13.771Z,122.20
2023-04-18T02:34:13.988Z,119.32
2023-04-18T02:35:13.963Z,124.44
2023-04-18T02:36:14.102Z,117.93
2023-04-18T02:37:14.230Z,122.34
2023-04-18T02:38:14.353Z,116.62
2023-04-18T02:39:14.492Z,118.43
2023-04-18T02:40:14.634Z,124.64
2023-04-18T02:41:14.776Z,128.57
2023-04-18T02:42:14.929Z,125.17
2023-04-18T02:43:15.099Z,125.38
2023-04-18T02:44:15.441Z,127.78
2023-04-18T02:45:15.409Z,124.92
2023-04-18T02:46:15.557Z,127.30
2023-04-18T02:47:15.635Z,127.44
2023-04-18T02:48:15.842Z,132.55
2023-04-18T02:49:15.924Z,140.27
2023-04-18T02:50:16.054Z,139.51
2023-04-18T02:51:16.181Z,140.75
2023-04-18T02:52:16.348Z,139.04
2023-04-18T02:53:16.516Z,134.50
2023-04-18T02:54:16.807Z,138.64
2023-04-18T02:55:16.826Z,135.78
2023-04-18T02:56:17.083Z,139.01
2023-04-18T02:57:17.152Z,137.40
2023-04-18T02:58:17.283Z,137.72
2023-04-18T02:59:17.435Z,140.73
2023-04-18T03:00:17.645Z,140.13
2023-04-18T03:01:17.756Z,138.37
2023-04-18T03:02:17.881Z,136.81
2023-04-18T03:03:17.986Z,138.77
2023-04-18T03:04:18.165Z,138.07
2023-04-18T03:05:18.214Z,139.25
2023-04-18T03:06:18.337Z,135.64
2023-04-18T03:07:18.473Z,139.54
2023-04-18T03:08:18.585Z,143.60
2023-04-18T03:09:18.759Z,143.14
2023-04-18T03:10:18.884Z,146.58
2023-04-18T03:11:19.023Z,144.65
2023-04-18T03:12:19.135Z,143.65
2023-04-18T03:13:19.293Z,139.00
2023-04-18T03:14:19.419Z,138.15
2023-04-18T03:15:19.574Z,132.82
2023-04-18T03:16:19.731Z,130.50
2023-04-18T03:17:19.780Z,131.54
2023-04-18T03:18:19.900Z,136.56
2023-04-18T03:19:20.022Z,141.01
2023-04-18T03:20:20.157Z,143.09
2023-04-18T03:21:20.291Z,139.98
2023-04-18T03:22:20.389Z,134.80
2023-04-18T03:23:20.501Z,140.25
2023-04-18T03:24:20.628Z,146.24
2023-04-18T03:25:20.741Z,148.72
2023-04-18T03:26:20.891Z,143.33
2023-04-18T03:27:21.039Z,141.12
2023-04-18T03:28:20.997Z,139.72
2023-04-18T03:29:21.017Z,135.82
2023-04-18T03:30:21.021Z,133.89
2023-04-18T03:31:21.052Z,129.14
2023-04-18T03:32:21.006Z,128.25
2023-04-18T03:33:21.011Z,129.96
2023-04-18T03:34:21.089Z,126.57
2023-04-18T03:35:21.231Z,127.98
2023-04-18T03:36:21.272Z,124.63
2023-04-18T03:37:21.288Z,128.65
2023-04-18T03:38:21.278Z,129.55
2023-04-18T03:39:21.272Z,136.50
2023-04-18T03:40:21.285Z,133.37
2023-04-18T03:41:21.365Z,141.58
2023-04-18T03:42:21.446Z,140.63
2023-04-18T03:43:21.540Z,137.55
2023-04-18T03:44:21.649Z,139.35
2023-04-18T03:45:21.652Z,140.41
2023-04-18T03:46:21.685Z,133.92
2023-04-18T03:47:21.665Z,131.64
2023-04-18T03:48:21.685Z,135.80
2023-04-18T03:49:21.694Z,135.71
2023-04-18T03:50:21.775Z,140.39
2023-04-18T03:51:21.948Z,134.06
2023-04-18T03:52:22.096Z,139.58
2023-04-18T03:53:22.244Z,143.44
2023-04-18T03:54:22.374Z,140.85
2023-04-18T03:55:22.526Z,145.99
2023-04-18T03:56:22.652Z,145.42
2023-04-18T03:57:22.777Z,143.30
2023-04-18T03:58:23.216Z,148.51
2023-04-18T03:59:23.037Z,142.12
2023-04-18T04:00:23.178Z,148.13
2023-04-18T04:01:23.339Z,148.58
2023-04-18T04:02:23.643Z,150.12
2023-04-18T04:03:23.764Z,143.07
2023-04-18T04:04:23.889Z,140.40
2023-04-18T04:05:23.943Z,142.81
2023-04-18T04:06:24.109Z,141.83
2023-04-18T04:07:24.209Z,141.49
2023-04-18T04:08:25.509Z,143.16
2023-04-18T04:09:24.560Z,141.40
2023-04-18T04:10:24.547Z,145.97
2023-04-18T04:11:24.531Z,142.63
2023-04-18T04:12:24.537Z,141.67
2023-04-18T04:13:24.536Z,145.43
2023-04-18T04:14:24.578Z,142.79
2023-04-18T04:15:24.565Z,137.63
2023-04-18T04:16:24.669Z,130.75
2023-04-18T04:17:24.644Z,128.96
2023-04-18T04:18:24.647Z,130.11
2023-04-18T04:19:24.737Z,130.09
2023-04-18T04:20:24.754Z,134.46
2023-04-18T04:21:24.729Z,130.26
2023-04-18T04:22:24.726Z,135.32
2023-04-18T04:23:24.744Z,131.02
2023-04-18T04:24:24.764Z,130.42
2023-04-18T04:25:24.757Z,127.25
2023-04-18T04:26:24.776Z,123.36
2023-04-18T04:27:24.783Z,121.76
2023-04-18T04:28:24.798Z,122.78
2023-04-18T04:29:24.813Z,125.29
2023-04-18T04:30:24.894Z,129.38
2023-04-18T04:31:24.934Z,133.38
2023-04-18T04:32:24.952Z,135.92
2023-04-18T04:33:24.903Z,142.89
2023-04-18T04:34:24.906Z,142.09
2023-04-18T04:35:24.937Z,142.97
2023-04-18T04:36:25.040Z,148.61
2023-04-18T04:37:25.143Z,148.74
2023-04-18T04:38:25.176Z,153.15
2023-04-18T04:39:25.143Z,156.76
2023-04-18T04:40:25.140Z,153.64
2023-04-18T04:41:25.136Z,152.04
2023-04-18T04:42:25.176Z,155.79
2023-04-18T04:43:25.188Z,155.00
2023-04-18T04:44:25.216Z,150.12
2023-04-18T04:45:25.183Z,149.85
2023-04-18T04:46:25.296Z,148.96
2023-04-18T04:47:25.188Z,154.71
2023-04-18T04:48:25.177Z,155.97
2023-04-18T04:49:25.164Z,157.18
2023-04-18T04:50:25.196Z,152.15
2023-04-18T04:51:25.185Z,152.40
2023-04-18T04:52:25.192Z,153.47
2023-04-18T04:53:25.276Z,157.10
2023-04-18T04:54:25.334Z,157.28
2023-04-18T04:55:25.339Z,160.40
2023-04-18T04:56:25.331Z,161.44
2023-04-18T04:57:25.332Z,164.39
2023-04-18T04:58:25.349Z,162.44
2023-04-18T04:59:25.414Z,163.59
2023-04-18T05:00:25.597Z,161.94
2023-04-18T05:01:25.621Z,163.12
2023-04-18T05:02:25.878Z,161.38
2023-04-18T05:03:25.725Z,160.03
2023-04-18T05:04:25.714Z,160.88
2023-04-18T05:05:25.627Z,158.97
2023-04-18T05:06:25.647Z,165.71
2023-04-18T05:07:25.659Z,160.97
2023-04-18T05:08:25.661Z,157.60
2023-04-18T05:09:25.728Z,159.60
2023-04-18T05:10:25.673Z,159.12
2023-04-18T05:11:25.750Z,160.98
2023-04-18T05:12:25.763Z,157.49
2023-04-18T05:13:25.766Z,162.85
2023-04-18T05:14:25.748Z,163.74
2023-04-18T05:15:25.753Z,166.15
2023-04-18T05:16:25.785Z,166.68
2023-04-18T05:17:25.793Z,165.23
2023-04-18T05:18:25.763Z,160.51
2023-04-18T05:19:25.768Z,162.66
2023-04-18T05:20:25.842Z,160.03
2023-04-18T05:21:25.876Z,166.66
2023-04-18T05:22:25.883Z,172.82
2023-04-18T05:23:25.892Z,177.39
2023-04-18T05:24:25.873Z,182.68
2023-04-18T05:25:25.922Z,184.31
2023-04-18T05:26:25.933Z,187.99
2023-04-18T05:27:26.009Z,188.03
2023-04-18T05:28:25.972Z,194.01
2023-04-18T05:29:25.979Z,197.57
2023-04-18T05:30:25.988Z,211.98
2023-04-18T05:31:26.057Z,221.91
2023-04-18T05:32:26.012Z,229.47
2023-04-18T05:33:26.027Z,240.02
2023-04-18T05:34:26.041Z,250.00
2023-04-18T05:35:26.083Z,250.67
2023-04-18T05:36:26.115Z,254.13
2023-04-18T05:37:26.162Z,249.79
2023-04-18T05:38:26.204Z,249.86
2023-04-18T05:39:26.260Z,250.31
2023-04-18T05:40:26.299Z,250.00
2023-04-18T05:41:26.440Z,248.91
2023-04-18T05:42:26.391Z,250.00
2023-04-18T05:43:26.455Z,249.13
2023-04-18T05:44:26.516Z,249.40
2023-04-18T05:45:26.559Z,250.00
2023-04-18T05:46:26.689Z,249.11
2023-04-18T05:47:26.774Z,250.00
2023-04-18T05:48:26.707Z,248.91
2023-04-18T05:49:26.763Z,250.42
2023-04-18T05:50:26.792Z,249.04
2023-04-18T05:51:26.848Z,248.67
2023-04-18T05:52:26.901Z,249.94
2023-04-18T05:53:26.970Z,249.67
2023-04-18T05:54:27.012Z,249.22
2023-04-18T05:55:27.457Z,249.60
2023-04-18T05:56:27.060Z,249.72
2023-04-18T05:57:27.119Z,249.02
2023-04-18T05:58:27.148Z,249.39
2023-04-18T05:59:27.165Z,250.00
2023-04-18T06:00:27.256Z,249.74
2023-04-18T06:01:27.270Z,247.62
2023-04-18T06:02:27.517Z,235.78
2023-04-18T06:03:27.598Z,218.63
2023-04-18T06:04:27.589Z,208.56
2023-04-18T06:05:27.998Z,202.52
2023-04-18T06:06:27.512Z,198.26
2023-04-18T06:07:27.553Z,192.30
2023-04-18T06:08:27.985Z,186.61
2023-04-18T06:09:27.661Z,183.15
2023-04-18T06:10:27.740Z,185.39
2023-04-18T06:11:27.730Z,187.38
2023-04-18T06:12:27.741Z,185.70
2023-04-18T06:13:27.737Z,179.78
2023-04-18T06:14:27.757Z,175.80
2023-04-18T06:15:27.781Z,180.62
2023-04-18T06:16:27.916Z,183.39
2023-04-18T06:17:27.895Z,185.34
2023-04-18T06:18:27.885Z,186.34
2023-04-18T06:19:27.882Z,186.15
2023-04-18T06:20:27.893Z,183.76
2023-04-18T06:21:27.900Z,185.36
2023-04-18T06:22:27.891Z,188.65
2023-04-18T06:23:27.980Z,188.36
2023-04-18T06:24:28.343Z,184.79
2023-04-18T06:25:28.001Z,178.77
2023-04-18T06:26:28.001Z,178.69
2023-04-18T06:27:31.634Z,184.71
2023-04-18T06:28:28.043Z,184.99
2023-04-18T06:29:27.990Z,186.06
2023-04-18T06:30:28.010Z,186.73
2023-04-18T06:31:28.073Z,190.15
2023-04-18T06:32:28.066Z,191.07
2023-04-18T06:33:28.482Z,189.41
2023-04-18T06:34:27.970Z,196.31
2023-04-18T06:35:27.997Z,197.63
2023-04-18T06:36:28.886Z,198.12
2023-04-18T06:37:27.948Z,203.72
2023-04-18T06:38:27.956Z,206.30
2023-04-18T06:39:27.944Z,201.66
2023-04-18T06:40:27.989Z,195.80
2023-04-18T06:41:27.925Z,197.95
2023-04-18T06:42:28.016Z,196.24
2023-04-18T06:43:27.897Z,198.45
2023-04-18T06:44:27.909Z,197.00
2023-04-18T06:45:28.034Z,198.19
2023-04-18T06:46:27.960Z,194.57
2023-04-18T06:47:27.918Z,194.17
2023-04-18T06:48:27.873Z,192.81
2023-04-18T06:49:27.858Z,193.04
2023-04-18T06:50:27.886Z,195.90
2023-04-18T06:51:27.840Z,197.89
2023-04-18T06:52:27.845Z,195.85
2023-04-18T06:53:27.875Z,194.37
2023-04-18T06:54:27.877Z,192.59
2023-04-18T06:55:27.988Z,192.36
2023-04-18T06:56:27.987Z,193.58
2023-04-18T06:57:28.012Z,192.84
2023-04-18T06:58:28.647Z,190.12
2023-04-18T06:59:28.136Z,197.80
2023-04-18T07:00:28.199Z,197.09
2023-04-18T07:01:28.229Z,193.93
2023-04-18T07:02:28.431Z,194.14
2023-04-18T07:03:28.542Z,200.22
2023-04-18T07:04:28.307Z,204.39
2023-04-18T07:05:28.340Z,207.68
2023-04-18T07:06:28.392Z,207.79
2023-04-18T07:07:28.447Z,204.81
2023-04-18T07:08:28.448Z,199.17
2023-04-18T07:09:28.483Z,201.29
2023-04-18T07:10:28.555Z,210.69
2023-04-18T07:11:28.553Z,214.18
2023-04-18T07:12:28.588Z,215.15
2023-04-18T07:13:28.659Z,217.27
2023-04-18T07:14:28.824Z,208.91
2023-04-18T07:15:28.769Z,204.96
2023-04-18T07:16:28.837Z,195.69
2023-04-18T07:17:28.884Z,189.45
2023-04-18T07:18:37.479Z,188.16
2023-04-18T07:19:29.876Z,185.48
2023-04-18T07:20:28.951Z,187.86
2023-04-18T07:21:28.873Z,186.70
2023-04-18T07:22:28.871Z,191.28
2023-04-18T07:23:28.836Z,189.53
2023-04-18T07:24:28.852Z,185.33
2023-04-18T07:25:28.841Z,178.44
2023-04-18T07:26:28.841Z,186.66
2023-04-18T07:27:28.825Z,189.15
2023-04-18T07:28:28.871Z,196.62
2023-04-18T07:29:29.026Z,200.91
2023-04-18T07:30:29.069Z,205.00
2023-04-18T07:31:29.025Z,202.85
2023-04-18T07:32:29.077Z,200.92
2023-04-18T07:33:29.103Z,186.80
2023-04-18T07:34:29.500Z,170.17
2023-04-18T07:35:29.495Z,158.37
2023-04-18T07:36:29.248Z,150.46
2023-04-18T07:37:29.289Z,146.51
2023-04-18T07:38:29.312Z,142.01
2023-04-18T07:39:29.322Z,136.15
2023-04-18T07:40:29.508Z,129.83
2023-04-18T07:41:29.438Z,123.38
2023-04-18T07:42:29.471Z,117.64
2023-04-18T07:43:29.540Z,116.25
2023-04-18T07:44:30.004Z,114.26
2023-04-18T07:45:29.619Z,111.70
2023-04-18T07:46:29.728Z,114.73
2023-04-18T07:47:30.721Z,103.16
2023-04-18T07:48:29.734Z,97.84
2023-04-18T07:49:30.028Z,101.16
2023-04-18T07:50:29.809Z,100.19
2023-04-18T07:51:29.823Z,109.88
2023-04-18T07:52:29.844Z,112.98
2023-04-18T07:53:29.900Z,113.41
2023-04-18T07:54:29.922Z,113.98
2023-04-18T07:55:29.962Z,111.62
2023-04-18T07:56:29.970Z,109.03
2023-04-18T07:57:30.005Z,107.26
2023-04-18T07:58:30.005Z,106.60
2023-04-18T07:59:30.053Z,96.83
2023-04-18T08:00:30.060Z,98.83
2023-04-18T08:01:30.062Z,105.53
2023-04-18T08:02:30.216Z,109.63
2023-04-18T08:03:30.304Z,107.34
2023-04-18T08:04:30.705Z,99.06
2023-04-18T08:05:30.252Z,89.95
2023-04-18T08:06:30.196Z,78.89
2023-04-18T08:07:30.194Z,77.65
2023-04-18T08:08:30.237Z,81.08
2023-04-18T08:09:30.278Z,82.42
2023-04-18T08:10:30.301Z,79.68
2023-04-18T08:11:30.278Z,77.71
2023-04-18T08:12:30.302Z,75.01
2023-04-18T08:13:30.359Z,69.57
2023-04-18T08:14:30.513Z,69.19
2023-04-18T08:15:30.400Z,69.48
2023-04-18T08:16:30.461Z,71.46
2023-04-18T08:17:30.469Z,68.24
2023-04-18T08:18:30.496Z,69.98
2023-04-18T08:19:30.514Z,61.32
2023-04-18T08:20:30.559Z,63.48
2023-04-18T08:21:31.014Z,52.63
2023-04-18T08:22:30.655Z,63.21
2023-04-18T08:23:30.687Z,83.33
2023-04-18T08:24:31.024Z,125.43
2023-04-18T08:25:30.770Z,139.07
2023-04-18T08:26:30.898Z,146.53
2023-04-18T08:27:30.875Z,166.81
2023-04-18T08:28:30.894Z,179.08
2023-04-18T08:29:31.018Z,185.22
2023-04-18T08:30:31.001Z,193.52
2023-04-18T08:31:31.036Z,199.00
2023-04-18T08:32:31.122Z,202.90
2023-04-18T08:33:31.004Z,200.86
2023-04-18T08:34:31.058Z,202.60
2023-04-18T08:35:31.102Z,200.77
2023-04-18T08:36:31.098Z,203.22
2023-04-18T08:37:31.081Z,204.77
2023-04-18T08:38:31.048Z,208.85
2023-04-18T08:39:31.551Z,209.40
2023-04-18T08:40:31.049Z,206.34
2023-04-18T08:41:31.123Z,202.06
2023-04-18T08:42:31.058Z,198.01
2023-04-18T08:43:31.069Z,200.56
2023-04-18T08:44:31.061Z,206.72
2023-04-18T08:45:31.047Z,209.32
2023-04-18T08:46:31.085Z,210.77
2023-04-18T08:47:31.123Z,207.96
2023-04-18T08:48:31.125Z,207.11
2023-04-18T08:49:31.146Z,203.66
2023-04-18T08:50:31.201Z,206.87
2023-04-18T08:51:31.162Z,208.23
2023-04-18T08:52:31.219Z,208.42
2023-04-18T08:53:31.210Z,208.47
2023-04-18T08:54:31.216Z,200.71
2023-04-18T08:55:31.229Z,203.16
2023-04-18T08:56:31.538Z,204.78
2023-04-18T08:57:31.296Z,197.00
2023-04-18T08:58:31.305Z,197.72
2023-04-18T08:59:31.301Z,196.94
2023-04-18T09:00:31.351Z,195.25
2023-04-18T09:01:31.374Z,195.78
2023-04-18T09:02:31.492Z,202.86
2023-04-18T09:03:31.433Z,206.66
2023-04-18T09:04:31.542Z,208.40
2023-04-18T09:05:31.466Z,211.24
2023-04-18T09:06:31.580Z,210.73
2023-04-18T09:07:31.491Z,206.74
2023-04-18T09:08:31.568Z,188.53
2023-04-18T09:09:31.600Z,168.94
2023-04-18T09:10:31.627Z,144.83
2023-04-18T09:11:32.041Z,125.03
2023-04-18T09:12:31.698Z,136.59
2023-04-18T09:13:31.720Z,111.78
2023-04-18T09:14:31.744Z,128.17
2023-04-18T09:15:31.780Z,140.50
2023-04-18T09:16:32.064Z,131.92
2023-04-18T09:17:31.874Z,97.14
2023-04-18T09:18:31.861Z,78.53
2023-04-18T09:19:31.863Z,90.21
2023-04-18T09:20:31.855Z,98.78
2023-04-18T09:21:32.032Z,109.85
2023-04-18T09:22:31.987Z,119.56
2023-04-18T09:23:32.035Z,119.29
2023-04-18T09:24:32.099Z,125.89
2023-04-18T09:25:32.536Z,135.54
2023-04-18T09:26:32.336Z,119.22
2023-04-18T09:27:32.331Z,110.37
2023-04-18T09:28:32.402Z,122.30
2023-04-18T09:29:32.419Z,136.71
2023-04-18T09:30:32.630Z,143.11
2023-04-18T09:31:33.073Z,125.41
2023-04-18T09:32:32.629Z,135.48
2023-04-18T09:33:32.675Z,142.43
2023-04-18T09:34:32.675Z,138.94
2023-04-18T09:35:32.718Z,143.44
2023-04-18T09:36:33.111Z,82.89
2023-04-18T09:37:32.907Z,71.13
2023-04-18T09:38:33.124Z,55.70
2023-04-18T09:39:32.937Z,58.49
2023-04-18T09:40:32.988Z,33.10
2023-04-18T09:41:33.066Z,38.04
2023-04-18T09:42:32.968Z,34.29
2023-04-18T09:43:33.012Z,33.99
2023-04-18T09:44:33.053Z,31.12
2023-04-18T09:45:32.947Z,19.74
2023-04-18T09:46:33.052Z,5.37
2023-04-18T09:47:33.136Z,11.33
2023-04-18T09:48:33.563Z,12.15
2023-04-18T09:49:33.017Z,11.72
2023-04-18T09:50:33.053Z,13.47
2023-04-18T09:51:33.576Z,2.24
2023-04-18T09:52:33.098Z,22.86
2023-04-18T09:53:33.117Z,25.54
2023-04-18T09:54:33.121Z,28.43
2023-04-18T09:55:33.137Z,31.72
2023-04-18T09:56:33.163Z,32.10
2023-04-18T09:57:33.161Z,40.50
2023-04-18T09:58:33.205Z,35.80
2023-04-18T09:59:33.245Z,36.44
2023-04-18T10:00:33.566Z,45.17
2023-04-18T10:01:33.282Z,56.07
2023-04-18T10:02:33.396Z,42.55
2023-04-18T10:03:33.362Z,34.45
2023-04-18T10:04:33.426Z,32.23
2023-04-18T10:05:33.398Z,34.73
2023-04-18T10:06:33.378Z,29.94
2023-04-18T10:07:33.383Z,33.27
2023-04-18T10:08:33.404Z,29.35
2023-04-18T10:09:33.420Z,38.33
2023-04-18T10:10:33.488Z,34.73
2023-04-18T10:11:33.462Z,37.85
2023-04-18T10:12:33.484Z,34.80
2023-04-18T10:13:33.508Z,28.30
2023-04-18T10:14:33.552Z,15.32
2023-04-18T10:15:33.600Z,18.96
2023-04-18T10:16:34.957Z,24.75
2023-04-18T10:17:33.798Z,27.21
2023-04-18T10:18:33.825Z,26.52
2023-04-18T10:19:33.859Z,35.87
2023-04-18T10:20:33.895Z,37.17
2023-04-18T10:21:34.067Z,39.47
2023-04-18T10:22:33.946Z,47.19
2023-04-18T10:23:33.989Z,53.70
2023-04-18T10:24:34.044Z,66.02
2023-04-18T10:25:34.095Z,75.77
2023-04-18T10:26:34.196Z,81.77
2023-04-18T10:27:34.126Z,85.32
2023-04-18T10:28:34.147Z,103.70
2023-04-18T10:29:34.181Z,126.65
2023-04-18T10:30:34.209Z,124.48
2023-04-18T10:31:34.279Z,140.68
2023-04-18T10:32:34.300Z,149.72
2023-04-18T10:33:34.454Z,155.92
2023-04-18T10:34:34.271Z,149.83
2023-04-18T10:35:34.279Z,139.27
2023-04-18T10:36:34.364Z,145.27
2023-04-18T10:37:34.305Z,154.21
2023-04-18T10:38:34.305Z,161.30
2023-04-18T10:39:34.315Z,162.77
2023-04-18T10:40:34.465Z,158.49
2023-04-18T10:41:34.393Z,159.43
2023-04-18T10:42:34.339Z,163.80
2023-04-18T10:43:34.411Z,165.00
2023-04-18T10:44:34.463Z,168.36
2023-04-18T10:45:34.498Z,168.88
2023-04-18T10:46:34.571Z,170.39
2023-04-18T10:47:34.672Z,175.67
2023-04-18T10:49:34.691Z,177.99
2023-04-18T10:50:34.655Z,178.77
2023-04-18T10:51:34.624Z,182.04
2023-04-18T10:52:34.656Z,183.25
2023-04-18T10:53:34.616Z,190.74
2023-04-18T10:54:34.630Z,195.02
2023-04-18T10:55:34.620Z,199.97
2023-04-18T10:56:34.609Z,203.11
2023-04-18T10:57:34.593Z,201.69
2023-04-18T10:58:34.616Z,200.26
2023-04-18T10:59:34.570Z,201.41
2023-04-18T11:00:34.601Z,207.09
2023-04-18T11:01:34.571Z,208.79
2023-04-18T11:02:34.685Z,211.96
2023-04-18T11:03:34.612Z,212.94
2023-04-18T11:04:34.620Z,213.29
2023-04-18T11:05:34.540Z,214.59
2023-04-18T11:06:34.542Z,217.01
2023-04-18T11:07:34.531Z,213.95
2023-04-18T11:08:34.536Z,210.62
2023-04-18T11:09:34.504Z,206.50
2023-04-18T11:10:34.498Z,190.81
2023-04-18T11:11:34.531Z,183.86
2023-04-18T11:12:35.520Z,183.78
2023-04-18T11:13:34.482Z,186.37
2023-04-18T11:14:34.503Z,188.30
2023-04-18T11:15:34.489Z,181.48
2023-04-18T11:16:34.641Z,183.50
2023-04-18T11:17:34.523Z,187.74
2023-04-18T11:18:34.459Z,194.99
2023-04-18T11:19:34.450Z,203.49
2023-04-18T11:20:34.435Z,209.22
2023-04-18T11:21:34.498Z,217.53
2023-04-18T11:22:34.544Z,219.38
2023-04-18T11:23:34.595Z,220.15
2023-04-18T11:24:34.644Z,219.50
2023-04-18T11:25:34.661Z,218.40
2023-04-18T11:26:35.728Z,218.02
2023-04-18T11:27:34.802Z,220.86
2023-04-18T11:28:34.893Z,225.62
2023-04-18T11:29:34.881Z,223.29
2023-04-18T11:30:34.980Z,223.23
2023-04-18T11:31:35.065Z,222.29
2023-04-18T11:32:35.171Z,222.80
2023-04-18T11:33:35.112Z,222.54
2023-04-18T11:34:35.183Z,221.38
2023-04-18T11:35:35.265Z,222.34
2023-04-18T11:36:35.357Z,220.78
2023-04-18T11:37:35.365Z,221.13
2023-04-18T11:38:35.428Z,219.01
2023-04-18T11:39:35.421Z,218.36
2023-04-18T11:40:35.439Z,219.25
2023-04-18T11:41:35.499Z,218.98
2023-04-18T11:42:35.544Z,217.43
2023-04-18T11:43:35.648Z,210.47
2023-04-18T11:44:36.345Z,211.82
2023-04-18T11:45:35.630Z,212.21
2023-04-18T11:46:35.730Z,214.45
2023-04-18T11:47:35.703Z,214.83
2023-04-18T11:48:35.712Z,210.11
2023-04-18T11:49:35.698Z,207.35
2023-04-18T11:50:35.711Z,205.23
2023-04-18T11:51:35.802Z,205.95
2023-04-18T11:52:35.782Z,199.02
2023-04-18T11:53:35.769Z,193.74
2023-04-18T11:54:35.794Z,192.83
2023-04-18T11:55:35.767Z,194.92
2023-04-18T11:56:36.890Z,193.48
2023-04-18T11:57:35.810Z,192.25
2023-04-18T11:58:35.867Z,195.42
2023-04-18T11:59:35.893Z,199.56
2023-04-18T12:00:35.873Z,204.74
2023-04-18T12:01:35.891Z,203.06
2023-04-18T12:02:36.150Z,190.75
2023-04-18T12:03:36.098Z,190.45
2023-04-18T12:04:36.202Z,195.03
2023-04-18T12:05:36.126Z,188.81
2023-04-18T12:06:35.922Z,187.17
2023-04-18T12:07:35.931Z,189.07
2023-04-18T12:08:35.904Z,188.31
2023-04-18T12:09:35.891Z,184.64
2023-04-18T12:10:35.883Z,177.94
2023-04-18T12:11:35.886Z,172.09
2023-04-18T12:12:35.930Z,175.88
2023-04-18T12:13:35.925Z,175.18
2023-04-18T12:14:35.920Z,172.52
2023-04-18T12:15:35.945Z,171.56
2023-04-18T12:16:35.967Z,171.15
2023-04-18T12:17:36.032Z,171.55
2023-04-18T12:18:35.972Z,170.22
2023-04-18T12:19:35.981Z,164.29
2023-04-18T12:20:35.959Z,160.36
2023-04-18T12:21:35.991Z,157.65
2023-04-18T12:22:36.125Z,162.26
2023-04-18T12:23:36.013Z,159.67
2023-04-18T12:24:36.009Z,159.26
2023-04-18T12:25:36.030Z,159.28
2023-04-18T12:26:36.087Z,160.48
2023-04-18T12:27:36.081Z,166.35
2023-04-18T12:28:36.079Z,154.90
2023-04-18T12:29:36.105Z,149.37
2023-04-18T12:30:37.769Z,151.37
2023-04-18T12:31:36.160Z,150.25
2023-04-18T12:32:36.187Z,153.66